createdAt,value
2022-08-07T00:03:47.189Z,91.9
2022-08-07T00:08:44.289Z,91.2
2022-08-07T00:13:44.778Z,91
2022-08-07T00:18:42.650Z,90.3
2022-08-07T00:23:42.627Z,89.3
2022-08-07T00:28:45.839Z,89.2
2022-08-07T00:33:42.632Z,89.1
2022-08-07T00:38:42.615Z,89
2022-08-07T00:44:00.178Z,88.8
2022-08-07T00:48:42.656Z,88.6
2022-08-07T00:53:50.352Z,88.1
2022-08-07T00:58:42.580Z,88.3
2022-08-07T01:03:55.164Z,88.4
2022-08-07T01:08:43.255Z,88.4
2022-08-07T01:13:42.565Z,88.3
2022-08-07T01:18:42.568Z,88.1
2022-08-07T01:23:46.273Z,87.8
2022-08-07T01:28:46.125Z,87.3
2022-08-07T01:33:53.845Z,86.9
2022-08-07T01:38:42.574Z,86.4
2022-08-07T01:43:42.536Z,85.7
2022-08-07T01:48:46.545Z,85.4
2022-08-07T01:54:00.831Z,85.4
2022-08-07T01:58:45.170Z,86.2
2022-08-07T02:03:42.969Z,86.8
2022-08-07T02:08:42.562Z,87.3
2022-08-07T02:13:58.367Z,87.5
2022-08-07T02:18:45.463Z,87.7
2022-08-07T02:23:42.474Z,87
2022-08-07T02:28:42.463Z,86.6
2022-08-07T02:33:57.412Z,86.8
2022-08-07T02:38:50.760Z,87.2
2022-08-07T02:43:42.457Z,87.9
2022-08-07T02:48:47.145Z,87.8
2022-08-07T02:53:42.437Z,87.8
2022-08-07T02:58:46.944Z,88.5
2022-08-07T03:03:49.598Z,89.2
2022-08-07T03:08:42.413Z,89.1
2022-08-07T03:13:49.633Z,88.6
2022-08-07T03:18:44.072Z,87.9
2022-08-07T03:28:42.638Z,87.1
2022-08-07T03:33:42.418Z,86.5
2022-08-07T03:38:42.374Z,86.4
2022-08-07T03:43:43.995Z,86
2022-08-07T03:54:00.848Z,86.5
2022-08-07T03:59:05.784Z,87.4
2022-08-07T04:03:50.085Z,86
2022-08-07T04:14:09.672Z,85.5
2022-08-07T04:23:43.169Z,84.2
2022-08-07T04:28:42.310Z,82.8
2022-08-07T04:33:42.322Z,81.8
2022-08-07T04:38:42.298Z,81.1
2022-08-07T04:44:11.039Z,80.6
2022-08-07T04:48:44.575Z,79.6
2022-08-07T04:54:01.241Z,79.8
2022-08-07T04:59:17.729Z,79.6
2022-08-07T05:04:00.871Z,79.2
2022-08-07T05:08:45.539Z,78.9
2022-08-07T05:14:45.246Z,79
2022-08-07T05:18:42.272Z,78.2
2022-08-07T05:23:42.267Z,78
2022-08-07T05:28:46.575Z,78
2022-08-07T05:33:42.244Z,77.9
2022-08-07T05:38:58.590Z,77.5
2022-08-07T05:43:43.281Z,77.2
2022-08-07T05:48:57.370Z,77.4
2022-08-07T05:54:09.005Z,77.1
2022-08-07T05:58:49.395Z,77.1
2022-08-07T06:03:53.357Z,77.1
2022-08-07T06:08:42.651Z,76.6
2022-08-07T06:14:11.021Z,75.9
2022-08-07T06:18:42.914Z,76
2022-08-07T06:23:47.125Z,75.6
2022-08-07T06:28:42.164Z,75.7
2022-08-07T06:33:42.175Z,75.2
2022-08-07T06:38:51.553Z,74.6
2022-08-07T06:43:46.048Z,74.6
2022-08-07T06:48:44.585Z,74.2
2022-08-07T06:54:12.386Z,74.5
2022-08-07T07:00:11.164Z,74
2022-08-07T07:03:49.173Z,73.3
2022-08-07T07:08:46.566Z,72
2022-08-07T07:13:56.825Z,71.2
2022-08-07T07:18:47.612Z,70.5
2022-08-07T07:24:06.922Z,68.9
2022-08-07T07:29:23.623Z,67
2022-08-07T07:33:42.078Z,66.2
2022-08-07T07:38:42.069Z,64.6
2022-08-07T07:43:48.263Z,63.2
2022-08-07T07:48:42.069Z,61.6
2022-08-07T07:53:44.893Z,61.2
2022-08-07T07:58:42.046Z,60.3
2022-08-07T08:04:05.756Z,59.2
2022-08-07T08:08:42.183Z,60.2
2022-08-07T08:13:52.831Z,60.4
2022-08-07T08:18:42.027Z,58.6
2022-08-07T08:23:42.009Z,57.3
2022-08-07T08:28:43.522Z,56.8
2022-08-07T08:38:41.993Z,55.9
2022-08-07T08:43:43.254Z,56.5
2022-08-07T08:48:41.993Z,55.6
2022-08-07T08:58:41.964Z,54.6
2022-08-07T09:03:47.303Z,53.9
2022-08-07T09:18:41.958Z,54.9
2022-08-07T09:24:34.322Z,54.2
2022-08-07T09:33:53.366Z,53.3
2022-08-07T09:38:41.910Z,53.5
2022-08-07T09:44:03.792Z,53.6
2022-08-07T09:48:55.729Z,53
2022-08-07T09:53:43.788Z,52.7
2022-08-07T09:58:42.341Z,53.1
2022-08-07T10:04:04.557Z,52
2022-08-07T10:08:41.913Z,52.1
2022-08-07T10:13:55.708Z,51
2022-08-07T10:18:42.287Z,52.3
2022-08-07T10:24:04.687Z,51.5
2022-08-07T10:28:41.840Z,52.4
2022-08-07T10:34:05.458Z,52
2022-08-07T10:38:47.849Z,50.7
2022-08-07T10:43:41.830Z,51.6
2022-08-07T10:48:41.824Z,49.9
2022-08-07T10:53:44.472Z,50.4
2022-08-07T10:58:41.804Z,49.5
2022-08-07T11:03:42.834Z,49.8
2022-08-07T11:08:41.793Z,51.2
2022-08-07T11:14:46.608Z,49.9
2022-08-07T11:18:41.786Z,50.2
2022-08-07T11:23:41.777Z,48.7
2022-08-07T11:28:41.770Z,50.1
2022-08-07T11:33:54.507Z,50
2022-08-07T11:38:41.762Z,50.1
2022-08-07T11:43:54.785Z,49.1
2022-08-07T11:48:49.933Z,48.8
2022-08-07T11:53:43.152Z,47
2022-08-07T11:58:41.748Z,47.4
2022-08-07T12:03:44.969Z,48.9
2022-08-07T12:08:42.493Z,49.5
2022-08-07T12:13:45.001Z,48.4
2022-08-07T12:18:45.392Z,48.9
2022-08-07T12:24:05.170Z,49.8
2022-08-07T12:28:45.108Z,49.5
2022-08-07T12:33:56.351Z,49.9
2022-08-07T12:38:43.190Z,50.2
2022-08-07T12:43:50.770Z,50
2022-08-07T12:48:52.313Z,49
2022-08-07T12:54:02.597Z,48.6
2022-08-07T12:58:43.008Z,49.9
2022-08-07T13:03:53.678Z,50.2
2022-08-07T13:08:41.630Z,49.4
2022-08-07T13:13:47.697Z,50.1
2022-08-07T13:18:41.633Z,50.7
2022-08-07T13:24:00.365Z,50.7
2022-08-07T13:28:41.606Z,51.1
2022-08-07T13:34:14.745Z,50.1
2022-08-07T13:38:41.821Z,49.9
2022-08-07T13:43:41.576Z,48.7
2022-08-07T13:48:41.578Z,48.2
2022-08-07T13:53:55.466Z,48.7
2022-08-07T13:58:41.574Z,48.2
2022-08-07T14:04:05.802Z,48.6
2022-08-07T14:08:41.550Z,47.9
2022-08-07T14:13:45.092Z,46.6
2022-08-07T14:18:41.553Z,47.4
2022-08-07T14:23:59.664Z,47.7
2022-08-07T14:28:57.169Z,48.3
2022-08-07T14:33:44.695Z,48.6
2022-08-07T14:38:41.547Z,48.7
2022-08-07T14:43:56.097Z,49.6
2022-08-07T14:48:41.529Z,48.8
2022-08-07T14:53:49.758Z,48.7
2022-08-07T14:58:42.593Z,48.4
2022-08-07T15:03:51.803Z,47.7
2022-08-07T15:13:41.490Z,49.3
2022-08-07T15:18:41.682Z,49.5
2022-08-07T15:25:03.627Z,49.7
2022-08-07T15:28:47.285Z,48.6
2022-08-07T15:33:42.630Z,49.7
2022-08-07T15:38:52.015Z,49.4
2022-08-07T15:43:53.985Z,49.5
2022-08-07T15:53:48.616Z,51.3
2022-08-07T15:58:41.397Z,51.3
2022-08-07T16:03:46.178Z,52.2
2022-08-07T16:08:41.397Z,52.4
2022-08-07T16:13:58.172Z,52.6
2022-08-07T16:18:43.406Z,52.8
2022-08-07T16:23:53.360Z,53
2022-08-07T16:29:18.204Z,52.5
2022-08-07T16:34:00.869Z,52.6
2022-08-07T16:39:00.197Z,52.5
2022-08-07T16:44:02.915Z,52.9
2022-08-07T16:48:58.300Z,53.2
2022-08-07T16:53:55.915Z,53.7
2022-08-07T16:59:02.646Z,53.9
2022-08-07T17:03:58.783Z,54.6
2022-08-07T17:09:04.642Z,54.8
2022-08-07T17:14:17.648Z,55.2
2022-08-07T17:18:41.288Z,55.2
2022-08-07T17:23:41.274Z,55.6
2022-08-07T17:28:41.275Z,55.5
2022-08-07T17:34:10.412Z,55.6
2022-08-07T17:38:44.315Z,55.9
2022-08-07T17:44:01.010Z,56.6
2022-08-07T17:48:41.274Z,57.2
2022-08-07T17:53:54.202Z,57.9
2022-08-07T17:58:46.250Z,58.4
2022-08-07T18:04:03.806Z,58.9
2022-08-07T18:09:00.488Z,59
2022-08-07T18:13:41.396Z,59.2
2022-08-07T18:18:47.834Z,59.5
2022-08-07T18:23:42.944Z,59.4
2022-08-07T18:33:54.667Z,60.1
2022-08-07T18:38:54.597Z,60
2022-08-07T18:43:42.762Z,60.3
2022-08-07T18:50:04.615Z,60.4
2022-08-07T18:58:41.182Z,61.6
2022-08-07T19:18:44.701Z,65.4
2022-08-07T19:23:57.692Z,65.6
2022-08-07T19:29:03.645Z,66.8
2022-08-07T19:33:41.904Z,68.3
2022-08-07T19:38:41.479Z,68.7
2022-08-07T19:43:44.463Z,68.7
2022-08-07T19:48:42.094Z,68.9
2022-08-07T19:54:30.777Z,69.9
2022-08-07T19:58:44.838Z,70.1
2022-08-07T20:03:41.132Z,70.1
2022-08-07T20:08:44.058Z,70.2
2022-08-07T20:13:42.071Z,69.8
2022-08-07T20:18:41.079Z,70.8
2022-08-07T20:23:48.551Z,70.8
2022-08-07T20:28:41.062Z,71
2022-08-07T20:33:41.041Z,71.2
2022-08-07T20:38:53.253Z,71.6
2022-08-07T20:43:47.406Z,72.5
2022-08-07T20:48:42.186Z,73.8
2022-08-07T20:54:02.677Z,73.6
2022-08-07T20:58:40.998Z,74.7
2022-08-07T21:03:41.053Z,75
2022-08-07T21:08:41.098Z,74.3
2022-08-07T21:13:44.187Z,75.8
2022-08-07T21:18:46.086Z,76.2
2022-08-07T21:23:42.770Z,75
2022-08-07T21:28:49.584Z,76.2
2022-08-07T21:33:41.593Z,76.1
2022-08-07T21:38:44.123Z,75.6
2022-08-07T21:43:47.724Z,75.9
2022-08-07T21:48:42.724Z,76.7
2022-08-07T21:53:46.670Z,76.2
2022-08-07T21:58:43.894Z,75.2
2022-08-07T22:13:50.692Z,73.3
2022-08-07T22:18:41.049Z,74.2
2022-08-07T22:23:41.062Z,74.4
2022-08-07T22:28:40.886Z,75.1
2022-08-07T22:33:53.721Z,74.4
2022-08-07T22:38:40.910Z,75
2022-08-07T22:43:40.876Z,75.6
2022-08-07T22:48:56.390Z,75.9
2022-08-07T22:54:05.872Z,77
2022-08-07T22:58:40.850Z,77.5
2022-08-07T23:03:57.857Z,77.9
2022-08-07T23:08:46.311Z,77.8
2022-08-07T23:13:48.322Z,78.3
2022-08-07T23:18:42.269Z,77.3
2022-08-07T23:28:44.222Z,77.8
2022-08-07T23:34:18.744Z,77.4
2022-08-07T23:38:42.533Z,77.4
2022-08-07T23:43:40.808Z,77
2022-08-07T23:48:40.782Z,77.9
2022-08-07T23:53:50.128Z,78
2022-08-07T23:58:42.320Z,78.7
